createdAt,value
2022-11-02T00:02:02.268Z,5.45
2022-11-02T00:04:29.065Z,4.50
2022-11-02T00:06:55.746Z,4.80
2022-11-02T00:09:22.369Z,5.50
2022-11-02T00:11:49.016Z,4.47
2022-11-02T00:14:15.800Z,4.30
2022-11-02T00:19:09.903Z,4.43
2022-11-02T00:21:37.664Z,5.07
2022-11-02T00:24:05.825Z,3.83
2022-11-02T00:26:34.761Z,4.25
2022-11-02T00:29:01.584Z,4.13
2022-11-02T00:33:54.987Z,5.65
2022-11-02T00:36:24.056Z,4.28
2022-11-02T00:38:51.366Z,4.40
2022-11-02T00:41:19.773Z,4.03
2022-11-02T00:43:46.560Z,4.70
2022-11-02T00:46:14.439Z,4.30
2022-11-02T00:48:41.884Z,3.85
2022-11-02T00:51:09.587Z,4.00
2022-11-02T00:56:03.433Z,3.67
2022-11-02T01:00:57.750Z,3.90
2022-11-02T01:03:25.658Z,3.90
2022-11-02T01:05:52.310Z,4.00
2022-11-02T01:10:48.240Z,3.92
2022-11-02T01:13:16.944Z,3.80
2022-11-02T01:15:43.578Z,3.75
2022-11-02T01:18:10.286Z,4.60
2022-11-02T01:23:03.670Z,4.53
2022-11-02T01:25:30.285Z,3.85
2022-11-02T01:27:56.964Z,3.35
2022-11-02T01:30:23.584Z,4.32
2022-11-02T01:32:50.228Z,5.47
2022-11-02T01:35:16.978Z,5.00
2022-11-02T01:40:10.890Z,4.25
2022-11-02T01:42:37.584Z,4.30
2022-11-02T01:45:04.531Z,4.43
2022-11-02T01:47:35.302Z,4.18
2022-11-02T01:50:08.484Z,4.10
2022-11-02T01:52:38.279Z,4.32
2022-11-02T01:55:07.793Z,5.05
2022-11-02T01:57:36.603Z,4.70
2022-11-02T02:00:08.820Z,4.00
2022-11-02T02:02:54.367Z,3.72
2022-11-02T02:05:24.121Z,5.20
2022-11-02T02:07:52.148Z,4.22
2022-11-02T02:10:19.241Z,4.15
2022-11-02T02:12:47.512Z,5.85
2022-11-02T02:15:17.799Z,5.25
2022-11-02T02:17:59.063Z,4.68
2022-11-02T02:20:44.610Z,4.80
2022-11-02T02:23:26.340Z,4.93
2022-11-02T02:26:13.014Z,5.38
2022-11-02T02:28:52.748Z,4.93
2022-11-02T02:31:42.943Z,5.72
2022-11-02T02:34:21.673Z,5.47
2022-11-02T02:37:29.807Z,5.32
2022-11-02T02:40:01.999Z,4.90
2022-11-02T02:42:47.156Z,5.45
2022-11-02T02:45:45.829Z,5.68
2022-11-02T02:48:19.874Z,5.80
2022-11-02T02:50:57.463Z,5.32
2022-11-02T02:53:33.941Z,5.10
2022-11-02T02:56:03.989Z,5.25
2022-11-02T02:58:36.896Z,4.70
2022-11-02T03:01:06.002Z,4.32
2022-11-02T03:03:35.780Z,5.00
2022-11-02T03:06:32.869Z,3.67
2022-11-02T03:09:24.590Z,4.32
2022-11-02T03:12:04.306Z,4.90
2022-11-02T03:14:40.784Z,4.43
2022-11-02T03:17:28.372Z,5.15
2022-11-02T03:20:21.629Z,4.55
2022-11-02T03:23:30.600Z,5.75
2022-11-02T03:26:04.308Z,5.05
2022-11-02T03:28:48.785Z,5.05
2022-11-02T03:31:30.061Z,4.68
2022-11-02T03:34:17.017Z,4.55
2022-11-02T03:36:53.999Z,5.18
2022-11-02T03:39:30.104Z,5.13
2022-11-02T03:42:00.786Z,5.22
2022-11-02T03:44:30.353Z,5.18
2022-11-02T03:47:00.182Z,5.85
2022-11-02T03:49:29.850Z,6.38
2022-11-02T03:52:01.756Z,6.85
2022-11-02T03:54:43.361Z,5.63
2022-11-02T03:57:16.707Z,4.53
2022-11-02T03:59:44.652Z,5.80
2022-11-02T04:02:13.423Z,4.15
2022-11-02T04:04:51.165Z,6.28
2022-11-02T04:07:56.803Z,5.88
2022-11-02T04:10:26.333Z,4.85
2022-11-02T04:15:38.624Z,5.10
2022-11-02T04:20:51.220Z,5.15
2022-11-02T04:23:37.577Z,4.18
2022-11-02T04:26:06.128Z,4.57
2022-11-02T04:28:43.554Z,5.65
2022-11-02T04:33:41.258Z,3.83
2022-11-02T04:36:14.331Z,4.55
2022-11-02T04:38:41.585Z,5.10
2022-11-02T04:41:37.913Z,5.00
2022-11-02T04:44:14.367Z,3.42
2022-11-02T04:46:44.489Z,3.58
2022-11-02T04:49:14.186Z,3.28
2022-11-02T04:51:47.221Z,4.72
2022-11-02T04:54:15.695Z,4.22
2022-11-02T04:56:43.896Z,3.85
2022-11-02T04:59:11.595Z,4.40
2022-11-02T05:01:38.635Z,3.03
2022-11-02T05:04:06.036Z,3.78
2022-11-02T05:06:35.232Z,3.58
2022-11-02T05:09:02.881Z,3.85
2022-11-02T05:11:31.379Z,3.97
2022-11-02T05:13:58.276Z,4.30
2022-11-02T05:18:53.952Z,3.80
2022-11-02T05:21:22.289Z,3.75
2022-11-02T05:23:50.274Z,4.43
2022-11-02T05:26:17.660Z,3.80
2022-11-02T05:28:47.293Z,3.53
2022-11-02T05:31:14.024Z,3.53
2022-11-02T05:33:41.610Z,4.05
2022-11-02T05:36:13.495Z,4.32
2022-11-02T05:38:43.777Z,3.97
2022-11-02T05:41:10.573Z,4.35
2022-11-02T05:43:39.325Z,3.90
2022-11-02T05:46:09.892Z,4.22
2022-11-02T05:48:36.626Z,4.07
2022-11-02T05:51:04.325Z,3.30
2022-11-02T05:53:33.664Z,3.05
2022-11-02T05:56:01.851Z,3.00
2022-11-02T05:58:29.506Z,4.07
2022-11-02T06:00:59.583Z,2.90
2022-11-02T06:03:26.576Z,3.33
2022-11-02T06:06:04.563Z,4.15
2022-11-02T06:08:35.887Z,3.45
2022-11-02T06:11:12.884Z,4.75
2022-11-02T06:13:41.247Z,5.65
2022-11-02T06:16:10.203Z,4.15
2022-11-02T06:18:37.937Z,3.67
2022-11-02T06:21:04.986Z,3.25
2022-11-02T06:23:31.840Z,5.13
2022-11-02T06:28:26.701Z,5.10
2022-11-02T06:30:54.274Z,4.78
2022-11-02T06:35:52.142Z,4.15
2022-11-02T06:38:18.902Z,3.83
2022-11-02T06:40:58.511Z,3.53
2022-11-02T06:43:26.294Z,3.97
2022-11-02T06:45:59.476Z,4.28
2022-11-02T06:48:31.512Z,4.30
2022-11-02T06:51:01.926Z,4.28
2022-11-02T06:53:28.629Z,4.45
2022-11-02T06:55:56.779Z,5.13
2022-11-02T06:58:24.512Z,4.00
2022-11-02T07:00:56.667Z,3.65
2022-11-02T07:03:23.616Z,3.13
2022-11-02T07:08:19.533Z,3.13
2022-11-02T07:10:46.793Z,4.50
2022-11-02T07:13:13.817Z,4.90
2022-11-02T07:15:40.712Z,3.63
2022-11-02T07:18:08.500Z,4.93
2022-11-02T07:20:35.733Z,3.90
2022-11-02T07:23:04.732Z,3.88
2022-11-02T07:25:33.426Z,4.80
2022-11-02T07:28:01.666Z,4.25
2022-11-02T07:30:33.084Z,3.80
2022-11-02T07:33:00.084Z,3.70
2022-11-02T07:35:27.580Z,3.88
2022-11-02T07:37:59.855Z,3.42
2022-11-02T07:40:27.788Z,3.25
2022-11-02T07:42:55.075Z,3.45
2022-11-02T07:45:30.688Z,3.83
2022-11-02T07:47:57.325Z,4.22
2022-11-02T07:50:27.031Z,3.38
2022-11-02T07:52:56.254Z,3.35
2022-11-02T07:55:25.140Z,3.20
2022-11-02T07:57:59.670Z,3.30
2022-11-02T08:00:32.078Z,4.00
2022-11-02T08:03:01.008Z,5.18
2022-11-02T08:05:29.377Z,4.93
2022-11-02T08:08:00.351Z,3.95
2022-11-02T08:10:29.388Z,3.70
2022-11-02T08:12:56.784Z,3.80
2022-11-02T08:15:23.944Z,3.65
2022-11-02T08:18:04.884Z,3.90
2022-11-02T08:20:32.359Z,3.72
2022-11-02T08:22:59.090Z,2.80
2022-11-02T08:27:55.594Z,2.88
2022-11-02T08:30:22.305Z,2.58
2022-11-02T08:32:52.631Z,2.50
2022-11-02T08:35:22.381Z,2.63
2022-11-02T08:40:22.021Z,2.78
2022-11-02T08:42:48.685Z,2.70
2022-11-02T08:47:42.837Z,2.35
2022-11-02T08:50:10.479Z,2.78
2022-11-02T08:52:40.945Z,2.70
2022-11-02T08:55:08.172Z,2.40
2022-11-02T08:57:45.401Z,2.20
2022-11-02T09:00:13.373Z,3.95
2022-11-02T09:02:40.302Z,2.28
2022-11-02T09:05:07.337Z,3.22
2022-11-02T09:07:34.014Z,2.38
2022-11-02T09:10:00.720Z,3.03
2022-11-02T09:12:27.379Z,2.05
2022-11-02T09:14:54.237Z,2.45
2022-11-02T09:19:47.559Z,2.58
2022-11-02T09:24:40.806Z,2.30
2022-11-02T09:27:07.444Z,2.42
2022-11-02T09:29:34.064Z,2.40
2022-11-02T09:34:27.389Z,2.58
2022-11-02T09:39:23.784Z,3.30
2022-11-02T09:42:22.493Z,2.22
2022-11-02T09:45:01.125Z,2.35
2022-11-02T09:48:10.609Z,2.55
2022-11-02T09:52:57.927Z,2.40
2022-11-02T09:55:32.132Z,2.40
2022-11-02T09:58:12.534Z,2.33
2022-11-02T10:00:41.494Z,2.80
2022-11-02T10:03:37.412Z,2.75
2022-11-02T10:06:25.479Z,3.33
2022-11-02T10:08:57.981Z,2.45
2022-11-02T10:11:45.065Z,2.88
2022-11-02T10:14:20.515Z,2.57
2022-11-02T10:17:26.119Z,2.42
2022-11-02T10:19:58.751Z,2.70
2022-11-02T10:22:32.160Z,2.78
2022-11-02T10:25:03.742Z,2.05
2022-11-02T10:27:36.788Z,1.88
2022-11-02T10:30:12.149Z,1.83
2022-11-02T10:32:40.771Z,2.05
2022-11-02T10:35:51.385Z,2.13
2022-11-02T10:38:20.505Z,3.42
2022-11-02T10:41:03.794Z,1.98
2022-11-02T10:43:55.142Z,1.90
2022-11-02T10:46:21.956Z,2.10
2022-11-02T10:49:13.845Z,2.15
2022-11-02T10:51:41.149Z,3.05
2022-11-02T10:54:17.883Z,2.63
2022-11-02T10:56:50.194Z,3.53
2022-11-02T10:59:19.940Z,2.08
2022-11-02T11:02:05.081Z,2.78
2022-11-02T11:04:33.164Z,2.60
2022-11-02T11:07:16.764Z,2.38
2022-11-02T11:09:57.408Z,2.85
2022-11-02T11:12:31.204Z,2.53
2022-11-02T11:20:39.480Z,2.35
2022-11-02T11:23:18.040Z,1.95
2022-11-02T11:25:56.322Z,1.40
2022-11-02T11:28:30.186Z,2.65
2022-11-02T11:31:14.409Z,2.88
2022-11-02T11:33:58.072Z,2.13
2022-11-02T11:36:34.320Z,2.30
2022-11-02T11:39:26.362Z,3.15
2022-11-02T11:41:53.140Z,2.10
2022-11-02T11:46:54.496Z,2.90
2022-11-02T11:49:41.652Z,2.33
2022-11-02T11:52:20.123Z,2.75
2022-11-02T11:54:57.912Z,3.00
2022-11-02T11:57:29.187Z,2.55
2022-11-02T11:59:59.102Z,2.20
2022-11-02T12:02:32.207Z,2.20
2022-11-02T12:05:20.740Z,2.60
2022-11-02T12:08:13.949Z,2.33
2022-11-02T12:11:03.907Z,2.25
2022-11-02T12:13:55.873Z,3.65
2022-11-02T12:16:29.296Z,2.78
2022-11-02T12:19:20.091Z,2.80
2022-11-02T12:22:02.320Z,2.88
2022-11-02T12:25:09.800Z,1.63
2022-11-02T12:28:05.925Z,2.13
2022-11-02T12:30:40.754Z,2.33
2022-11-02T12:33:40.522Z,2.20
2022-11-02T12:36:34.836Z,3.05
2022-11-02T12:39:08.408Z,2.65
2022-11-02T12:42:09.053Z,2.17
2022-11-02T12:45:24.247Z,2.42
2022-11-02T12:48:02.507Z,1.70
2022-11-02T12:50:34.522Z,2.05
2022-11-02T12:53:04.465Z,1.90
2022-11-02T12:55:38.713Z,2.22
2022-11-02T12:58:12.679Z,2.47
2022-11-02T13:00:43.572Z,2.20
2022-11-02T13:03:33.254Z,2.22
2022-11-02T13:06:06.494Z,2.45
2022-11-02T13:08:43.397Z,2.67
2022-11-02T13:11:21.275Z,2.28
2022-11-02T13:13:54.840Z,1.92
2022-11-02T13:16:46.303Z,2.30
2022-11-02T13:19:19.341Z,2.20
2022-11-02T13:21:54.657Z,2.08
2022-11-02T13:24:31.969Z,1.88
2022-11-02T13:29:54.280Z,1.77
2022-11-02T13:32:33.952Z,1.88
2022-11-02T13:35:12.632Z,1.90
2022-11-02T13:37:44.017Z,2.28
2022-11-02T13:40:24.136Z,1.65
2022-11-02T13:43:05.612Z,1.90
2022-11-02T13:46:08.870Z,2.25
2022-11-02T13:49:00.262Z,1.58
2022-11-02T13:51:38.199Z,2.78
2022-11-02T13:54:35.818Z,2.05
2022-11-02T13:57:02.961Z,1.77
2022-11-02T13:59:43.188Z,1.80
2022-11-02T14:02:15.777Z,2.00
2022-11-02T14:04:44.309Z,1.75
2022-11-02T14:07:38.574Z,2.45
2022-11-02T14:10:15.120Z,1.52
2022-11-02T14:12:49.040Z,2.22
2022-11-02T14:15:15.729Z,1.90
2022-11-02T14:20:41.002Z,1.42
2022-11-02T14:23:19.717Z,1.40
2022-11-02T14:25:52.851Z,1.85
2022-11-02T14:28:22.551Z,2.35
2022-11-02T14:30:57.469Z,1.90
2022-11-02T14:33:45.968Z,1.40
2022-11-02T14:36:19.497Z,1.70
2022-11-02T14:39:23.869Z,1.15
2022-11-02T14:42:07.940Z,2.00
2022-11-02T14:44:59.023Z,1.73
2022-11-02T14:47:31.361Z,3.78
2022-11-02T14:50:06.284Z,3.17
2022-11-02T14:52:35.543Z,3.65
2022-11-02T14:55:04.390Z,3.75
2022-11-02T14:57:42.649Z,3.65
2022-11-02T15:00:20.715Z,3.50
2022-11-02T15:02:48.298Z,4.03
2022-11-02T15:05:23.544Z,4.10
2022-11-02T15:08:04.715Z,3.20
2022-11-02T15:10:31.364Z,3.38
2022-11-02T15:13:22.772Z,2.63
2022-11-02T15:15:55.219Z,2.67
2022-11-02T15:18:30.849Z,3.38
2022-11-02T15:21:12.848Z,4.22
2022-11-02T15:23:54.072Z,3.53
2022-11-02T15:26:48.211Z,4.18
2022-11-02T15:29:42.613Z,4.07
2022-11-02T15:32:22.307Z,3.40
2022-11-02T15:34:51.586Z,3.42
2022-11-02T15:37:28.984Z,3.45
2022-11-02T15:42:40.761Z,3.08
2022-11-02T15:45:26.823Z,3.33
2022-11-02T15:48:16.724Z,3.70
2022-11-02T15:51:16.353Z,4.20
2022-11-02T15:54:06.134Z,4.43
2022-11-02T15:56:51.613Z,3.67
2022-11-02T15:59:39.652Z,4.05
2022-11-02T16:02:06.391Z,4.50
2022-11-02T16:04:34.870Z,4.25
2022-11-02T16:07:09.094Z,3.95
2022-11-02T16:09:39.295Z,3.42
2022-11-02T16:12:18.982Z,4.65
2022-11-02T16:14:58.900Z,4.82
2022-11-02T16:17:28.317Z,5.60
2022-11-02T16:20:13.702Z,4.53
2022-11-02T16:22:41.258Z,4.53
2022-11-02T16:25:18.580Z,3.88
2022-11-02T16:30:22.357Z,3.35
2022-11-02T16:33:05.312Z,3.92
2022-11-02T16:35:32.263Z,4.40
2022-11-02T16:37:59.127Z,3.35
2022-11-02T16:42:53.403Z,4.65
2022-11-02T16:45:31.642Z,4.82
2022-11-02T16:47:58.593Z,3.72
2022-11-02T16:50:27.052Z,4.47
2022-11-02T16:52:59.246Z,4.13
2022-11-02T16:55:36.815Z,5.38
2022-11-02T16:58:06.269Z,5.32
2022-11-02T17:00:33.801Z,4.35
2022-11-02T17:03:08.785Z,6.85
2022-11-02T17:05:40.507Z,7.38
2022-11-02T17:08:19.088Z,5.57
2022-11-02T17:10:45.932Z,5.28
2022-11-02T17:15:49.793Z,6.88
2022-11-02T17:18:26.957Z,5.00
2022-11-02T17:21:12.626Z,5.82
2022-11-02T17:23:45.055Z,5.00
2022-11-02T17:26:26.589Z,6.50
2022-11-02T17:29:02.245Z,6.03
2022-11-02T17:31:41.041Z,5.82
2022-11-02T17:34:10.317Z,6.90
2022-11-02T17:36:44.644Z,7.65
2022-11-02T17:39:14.472Z,6.78
2022-11-02T17:42:01.142Z,5.53
2022-11-02T17:44:27.792Z,5.18
2022-11-02T17:46:55.195Z,5.70
2022-11-02T17:49:22.078Z,6.00
2022-11-02T17:54:15.405Z,7.25
2022-11-02T17:56:42.074Z,5.97
2022-11-02T18:01:35.739Z,7.30
2022-11-02T18:04:02.511Z,7.63
2022-11-02T18:06:29.718Z,7.15
2022-11-02T18:09:11.403Z,6.03
2022-11-02T18:11:38.069Z,7.68
2022-11-02T18:14:04.810Z,7.72
2022-11-02T18:18:58.848Z,6.20
2022-11-02T18:21:25.544Z,6.10
2022-11-02T18:23:52.244Z,7.40
2022-11-02T18:26:19.017Z,7.50
2022-11-02T18:31:12.666Z,6.80
2022-11-02T18:33:39.384Z,5.13
2022-11-02T18:36:08.247Z,8.75
2022-11-02T18:38:35.427Z,7.85
2022-11-02T18:41:27.873Z,8.27
2022-11-02T18:44:02.235Z,6.85
2022-11-02T18:46:32.546Z,7.38
2022-11-02T18:48:59.489Z,7.13
2022-11-02T18:51:26.631Z,5.80
2022-11-02T18:53:58.636Z,6.93
2022-11-02T18:56:25.710Z,7.00
2022-11-02T18:58:53.731Z,7.18
2022-11-02T19:01:22.157Z,6.38
2022-11-02T19:03:51.036Z,7.53
2022-11-02T19:06:37.406Z,6.28
2022-11-02T19:09:18.082Z,7.15
2022-11-02T19:12:09.540Z,7.53
2022-11-02T19:14:39.151Z,7.15
2022-11-02T19:17:07.185Z,5.93
2022-11-02T19:19:34.795Z,6.75
2022-11-02T19:22:02.465Z,7.10
2022-11-02T19:24:29.409Z,5.55
2022-11-02T19:29:22.915Z,6.00
2022-11-02T19:34:16.274Z,5.68
2022-11-02T19:39:10.219Z,7.18
2022-11-02T19:41:38.468Z,6.10
2022-11-02T19:44:06.353Z,6.95
2022-11-02T19:46:33.698Z,6.55
2022-11-02T19:49:00.439Z,6.10
2022-11-02T19:51:29.381Z,6.63
2022-11-02T19:53:59.061Z,6.63
2022-11-02T19:56:30.283Z,9.13
2022-11-02T19:58:57.624Z,7.85
2022-11-02T20:01:26.786Z,8.13
2022-11-02T20:03:54.822Z,7.22
2022-11-02T20:06:43.112Z,6.47
2022-11-02T20:09:17.934Z,6.28
2022-11-02T20:11:46.253Z,6.75
2022-11-02T20:14:15.274Z,6.55
2022-11-02T20:16:42.413Z,6.70
2022-11-02T20:19:09.447Z,6.78
2022-11-02T20:21:41.508Z,5.00
2022-11-02T20:24:10.169Z,8.48
2022-11-02T20:26:38.723Z,5.63
2022-11-02T20:29:06.295Z,6.43
2022-11-02T20:31:38.332Z,5.63
2022-11-02T20:34:07.438Z,6.32
2022-11-02T20:36:34.817Z,5.10
2022-11-02T20:39:04.550Z,4.80
2022-11-02T20:41:31.607Z,6.10
2022-11-02T20:43:58.325Z,5.30
2022-11-02T20:46:38.988Z,6.35
2022-11-02T20:49:20.109Z,7.30
2022-11-02T20:51:55.059Z,5.88
2022-11-02T20:54:22.196Z,6.30
2022-11-02T20:56:49.619Z,6.88
2022-11-02T20:59:16.536Z,5.63
2022-11-02T21:04:12.739Z,6.35
2022-11-02T21:06:42.097Z,5.65
2022-11-02T21:09:12.029Z,7.18
2022-11-02T21:11:58.171Z,5.15
2022-11-02T21:14:25.110Z,6.10
2022-11-02T21:19:18.357Z,5.90
2022-11-02T21:21:45.111Z,5.78
2022-11-02T21:26:38.637Z,6.60
2022-11-02T21:31:32.078Z,5.82
2022-11-02T21:33:58.796Z,7.15
2022-11-02T21:38:52.066Z,5.82
2022-11-02T21:41:21.404Z,6.05
2022-11-02T21:43:51.689Z,6.03
2022-11-02T21:46:19.561Z,4.80
2022-11-02T21:48:46.225Z,5.05
2022-11-02T21:51:18.651Z,5.20
2022-11-02T21:53:47.269Z,6.75
2022-11-02T21:56:19.792Z,7.43
2022-11-02T21:58:47.661Z,6.68
2022-11-02T22:01:34.786Z,6.63
2022-11-02T22:04:02.313Z,7.57
2022-11-02T22:06:31.551Z,6.18
2022-11-02T22:08:59.608Z,6.63
2022-11-02T22:11:27.176Z,6.18
2022-11-02T22:13:55.814Z,6.90
2022-11-02T22:16:31.952Z,5.80
2022-11-02T22:19:00.336Z,5.38
2022-11-02T22:21:29.294Z,5.13
2022-11-02T22:23:56.644Z,6.03
2022-11-02T22:26:25.684Z,5.70
2022-11-02T22:28:52.957Z,5.18
2022-11-02T22:31:22.156Z,7.38
2022-11-02T22:33:51.804Z,5.95
2022-11-02T22:36:21.133Z,6.13
2022-11-02T22:38:48.488Z,5.18
2022-11-02T22:41:15.903Z,6.70
2022-11-02T22:43:42.849Z,6.30
2022-11-02T22:46:10.350Z,5.32
2022-11-02T22:48:37.073Z,5.82
2022-11-02T22:51:05.849Z,5.97
2022-11-02T22:53:33.065Z,5.57
2022-11-02T22:56:12.360Z,5.07
2022-11-02T22:58:40.814Z,6.40
2022-11-02T23:01:09.813Z,5.45
2022-11-02T23:03:37.461Z,6.00
2022-11-02T23:06:06.460Z,6.85
2022-11-02T23:08:38.931Z,5.88
2022-11-02T23:11:22.515Z,4.50
2022-11-02T23:13:57.621Z,5.60
2022-11-02T23:16:31.538Z,5.82
2022-11-02T23:19:27.785Z,5.28
2022-11-02T23:22:27.235Z,4.82
2022-11-02T23:25:13.705Z,5.00
2022-11-02T23:28:12.499Z,5.53
2022-11-02T23:30:57.920Z,4.93
2022-11-02T23:33:29.549Z,4.57
2022-11-02T23:36:12.308Z,4.05
2022-11-02T23:38:58.775Z,4.68
2022-11-02T23:41:25.806Z,5.07
2022-11-02T23:44:11.118Z,5.15
2022-11-02T23:46:42.850Z,5.80
2022-11-02T23:49:10.196Z,5.53
2022-11-02T23:51:55.852Z,6.40
2022-11-02T23:54:41.453Z,5.57
2022-11-02T23:57:08.223Z,5.40
2022-11-02T23:59:34.878Z,5.32
